Time;durP1;ratioP1;P1;durP2;ratioP2;P2;SDS_P1;SDS_P2;PMS_P1;PMS_P2;Temp;Humidity;BMP_temperature;BMP_pressure;BME280_temperature;BME280_humidity;BME280_pressure;Samples;Min_cycle;Max_cycle;Signal;HPM_P1;HPM_P2
2023/08/07 00:01:10;;;;;;;0.40;0.20;;;;;;;15.59;89.02;99942.13;4998255;28;20857;-49
2023/08/07 00:03:36;;;;;;;0.40;0.20;;;;;;;15.62;89.41;99945.56;4998929;28;20445;-49
2023/08/07 00:06:03;;;;;;;0.40;0.20;;;;;;;15.61;88.90;99948.28;5005856;28;20500;-49
2023/08/07 00:08:31;;;;;;;0.40;0.20;;;;;;;15.54;89.11;99947.72;5002360;28;20544;-49
2023/08/07 00:11:10;;;;;;;0.40;0.20;;;;;;;15.49;89.21;99947.13;5005605;28;21020;-49
2023/08/07 00:13:37;;;;;;;0.40;0.20;;;;;;;15.60;88.61;99946.56;5005905;28;20494;-49
2023/08/07 00:16:03;;;;;;;0.40;0.20;;;;;;;15.59;88.42;99945.69;5001893;28;20453;-49
2023/08/07 00:18:30;;;;;;;0.40;0.20;;;;;;;15.59;88.04;99951.06;4995379;28;20547;-49
2023/08/07 00:20:56;;;;;;;0.40;0.20;;;;;;;15.66;87.95;99952.47;5001796;28;20468;-48
2023/08/07 00:23:23;;;;;;;0.40;0.20;;;;;;;15.71;87.87;99949.50;4999236;28;20449;-52
2023/08/07 00:25:49;;;;;;;0.40;0.20;;;;;;;15.59;87.98;99953.72;5003162;28;20555;-52
2023/08/07 00:28:16;;;;;;;0.40;0.20;;;;;;;15.66;87.61;99948.91;5005898;28;20460;-52
2023/08/07 00:30:42;;;;;;;0.40;0.20;;;;;;;15.52;87.55;99952.31;5001609;28;20484;-52
2023/08/07 00:33:09;;;;;;;0.40;0.20;;;;;;;15.70;87.63;99950.47;4998762;28;20531;-51
2023/08/07 00:35:35;;;;;;;0.40;0.20;;;;;;;15.88;87.13;99946.75;5002883;28;20534;-51
2023/08/07 00:38:02;;;;;;;0.40;0.20;;;;;;;15.70;86.48;99947.78;5005854;28;20459;-51
2023/08/07 00:40:37;;;;;;;0.40;0.20;;;;;;;15.65;87.00;99956.09;5002851;28;20555;-52
2023/08/07 00:43:04;;;;;;;0.40;0.20;;;;;;;15.92;86.41;99953.69;4998994;28;20537;-52
2023/08/07 00:45:37;;;;;;;0.40;0.20;;;;;;;15.64;86.95;99956.19;5004456;28;20896;-51
2023/08/07 00:48:05;;;;;;;0.40;0.20;;;;;;;15.51;87.66;99955.09;5009993;28;20512;-50
2023/08/07 00:50:31;;;;;;;0.40;0.20;;;;;;;15.85;86.28;99946.94;5009567;28;20564;-51
2023/08/07 00:53:12;;;;;;;0.40;0.20;;;;;;;15.49;87.11;99948.91;4993016;28;20988;-52
2023/08/07 00:55:39;;;;;;;0.40;0.20;;;;;;;15.49;87.59;99951.59;5002440;28;20463;-51
2023/08/07 00:58:05;;;;;;;0.40;0.20;;;;;;;15.55;87.16;99954.81;5007676;28;20821;-52
2023/08/07 01:00:32;;;;;;;0.40;0.20;;;;;;;15.59;87.53;99960.88;5009584;28;20472;-51
2023/08/07 01:03:00;;;;;;;0.40;0.20;;;;;;;15.48;87.42;99950.72;5004763;28;20941;-51
2023/08/07 01:05:26;;;;;;;0.40;0.20;;;;;;;15.68;87.47;99947.88;5002569;28;20806;-51
2023/08/07 01:07:54;;;;;;;0.40;0.40;;;;;;;15.73;87.25;99957.47;5006601;28;20456;-51
2023/08/07 01:10:32;;;;;;;0.40;0.20;;;;;;;15.76;87.38;99954.63;5002071;28;20563;-51
2023/08/07 01:13:07;;;;;;;0.40;0.20;;;;;;;15.63;87.00;99952.63;5004471;28;20791;-51
2023/08/07 01:15:37;;;;;;;0.40;0.20;;;;;;;15.72;87.28;99956.59;5009075;28;21020;-51
2023/08/07 01:18:06;;;;;;;0.40;0.20;;;;;;;15.76;85.90;99944.78;5009291;28;20448;-52
2023/08/07 01:20:33;;;;;;;0.40;0.20;;;;;;;15.67;86.83;99945.28;5011906;28;20478;-51
2023/08/07 01:22:59;;;;;;;0.40;0.20;;;;;;;15.68;86.55;99958.59;5002235;28;20540;-51
2023/08/07 01:25:27;;;;;;;0.40;0.20;;;;;;;15.60;86.82;99952.78;5008375;28;20450;-51
2023/08/07 01:28:01;;;;;;;0.40;0.20;;;;;;;15.50;87.30;99956.91;5009041;28;20453;-52
2023/08/07 01:30:50;;;;;;;0.40;0.20;;;;;;;15.60;86.22;99955.47;5004676;28;20874;-51
2023/08/07 01:33:26;;;;;;;0.40;0.20;;;;;;;15.56;86.76;99950.31;5001999;28;20856;-49
2023/08/07 01:35:58;;;;;;;0.40;0.20;;;;;;;15.83;85.58;99956.03;5012809;28;20539;-50
2023/08/07 01:38:26;;;;;;;0.40;0.20;;;;;;;15.49;86.15;99955.16;4986230;28;20511;-49
2023/08/07 01:40:53;;;;;;;1.03;1.03;;;;;;;15.58;86.66;99959.16;5008866;28;20472;-49
2023/08/07 01:43:20;;;;;;;0.40;0.20;;;;;;;15.58;86.39;99967.19;5000588;28;21001;-50
2023/08/07 01:45:47;;;;;;;0.40;0.20;;;;;;;15.62;86.25;99968.75;5000468;28;20457;-49
2023/08/07 01:48:13;;;;;;;0.40;0.20;;;;;;;15.60;85.79;99962.63;5007594;28;20503;-49
2023/08/07 01:50:40;;;;;;;0.40;0.20;;;;;;;15.73;85.82;99965.50;5008614;28;20508;-49
2023/08/07 01:53:06;;;;;;;0.40;0.20;;;;;;;15.53;86.41;99975.47;4998877;28;20489;-49
2023/08/07 01:55:33;;;;;;;0.40;0.20;;;;;;;15.61;86.47;99969.72;5008560;28;20511;-49
2023/08/07 01:57:59;;;;;;;0.40;0.20;;;;;;;15.54;86.63;99973.66;4998588;28;20490;-49
2023/08/07 02:00:26;;;;;;;0.40;0.20;;;;;;;15.47;86.14;99977.59;5008449;28;20694;-49
2023/08/07 02:02:52;;;;;;;0.40;0.20;;;;;;;15.67;85.43;99969.41;5002792;28;20458;-49
2023/08/07 02:05:19;;;;;;;0.40;0.20;;;;;;;15.68;85.96;99980.03;5001820;28;20453;-51
2023/08/07 02:07:45;;;;;;;0.40;0.20;;;;;;;15.64;86.08;99974.94;5006800;28;20536;-50
2023/08/07 02:10:12;;;;;;;0.40;0.20;;;;;;;15.59;85.49;99980.53;5008583;28;20465;-49
2023/08/07 02:12:38;;;;;;;0.40;0.20;;;;;;;15.59;85.67;99976.94;5006391;28;20495;-49
2023/08/07 02:15:05;;;;;;;0.40;0.20;;;;;;;15.55;85.77;99981.63;5008129;28;20575;-49
2023/08/07 02:17:37;;;;;;;0.40;0.20;;;;;;;15.56;86.15;99988.69;5003221;28;20547;-49
2023/08/07 02:20:05;;;;;;;0.40;0.20;;;;;;;15.55;86.53;99980.75;5001521;28;20952;-49
2023/08/07 02:22:31;;;;;;;0.40;0.20;;;;;;;15.68;85.75;99985.41;5004822;28;20883;-50
2023/08/07 02:24:58;;;;;;;0.40;0.20;;;;;;;15.51;86.24;99990.78;5007287;28;20448;-49
2023/08/07 02:27:24;;;;;;;0.40;0.20;;;;;;;15.54;85.95;99985.25;5004757;28;20452;-49
2023/08/07 02:29:51;;;;;;;0.40;0.20;;;;;;;15.47;85.92;99996.34;5000763;28;20567;-49
2023/08/07 02:32:17;;;;;;;0.40;0.20;;;;;;;15.65;85.72;99990.94;5004416;28;20455;-49
2023/08/07 02:34:45;;;;;;;0.40;0.20;;;;;;;15.78;85.55;99990.25;5007800;28;20493;-49
2023/08/07 02:37:13;;;;;;;0.40;0.20;;;;;;;15.51;86.03;99987.22;5004494;28;20984;-49
2023/08/07 02:39:39;;;;;;;0.40;0.20;;;;;;;15.55;86.21;99981.63;5000789;28;20468;-49
2023/08/07 02:42:06;;;;;;;0.40;0.20;;;;;;;15.75;85.90;99979.69;5002734;28;20453;-49
2023/08/07 02:44:32;;;;;;;0.40;0.20;;;;;;;15.97;84.89;99996.31;5004007;28;20445;-50
2023/08/07 02:46:59;;;;;;;0.40;0.20;;;;;;;15.80;84.73;99997.25;5014072;28;20455;-49
2023/08/07 02:49:25;;;;;;;0.40;0.20;;;;;;;15.68;85.89;99993.44;5000699;28;20448;-49
2023/08/07 02:51:52;;;;;;;0.40;0.20;;;;;;;15.58;85.82;99992.16;5009068;28;20539;-49
2023/08/07 02:54:18;;;;;;;0.40;0.20;;;;;;;15.52;86.25;99984.47;5000504;28;20862;-49
2023/08/07 02:56:45;;;;;;;0.40;0.20;;;;;;;15.50;86.11;99997.09;5002974;28;20874;-49
2023/08/07 02:59:11;;;;;;;0.40;0.20;;;;;;;15.47;86.38;99997.22;5007043;28;20465;-49
2023/08/07 03:01:38;;;;;;;0.40;0.20;;;;;;;15.68;85.54;99993.44;4996053;28;20464;-49
2023/08/07 03:04:04;;;;;;;0.40;0.20;;;;;;;15.53;85.48;99991.56;5007170;28;20456;-49
2023/08/07 03:06:30;;;;;;;0.40;0.20;;;;;;;15.41;86.32;99995.75;5001222;28;20456;-50
2023/08/07 03:08:57;;;;;;;0.40;0.20;;;;;;;15.49;85.95;99991.78;5009255;28;20535;-49
2023/08/07 03:11:23;;;;;;;0.40;0.20;;;;;;;15.53;86.15;99996.91;5001889;28;20473;-50
2023/08/07 03:13:50;;;;;;;0.40;0.20;;;;;;;15.48;86.26;100001.63;5006680;28;20463;-49
2023/08/07 03:16:16;;;;;;;0.40;0.20;;;;;;;15.57;85.85;99995.78;5005742;28;20455;-50
2023/08/07 03:18:43;;;;;;;0.40;0.20;;;;;;;15.53;85.88;99993.38;5000195;28;20452;-49
2023/08/07 03:21:09;;;;;;;0.40;0.20;;;;;;;15.46;86.24;99997.31;5001496;28;20444;-49
2023/08/07 03:23:36;;;;;;;0.40;0.20;;;;;;;15.70;86.04;99993.34;5006894;28;20464;-49
2023/08/07 03:26:11;;;;;;;0.40;0.20;;;;;;;15.57;85.59;100005.63;5003142;28;20445;-49
2023/08/07 03:28:46;;;;;;;0.40;0.20;;;;;;;15.54;85.89;99993.28;5001358;28;20453;-49
2023/08/07 03:31:13;;;;;;;0.40;0.20;;;;;;;15.42;86.01;100001.97;4999813;28;20485;-49
2023/08/07 03:33:39;;;;;;;0.40;0.20;;;;;;;15.42;85.98;100007.31;5005542;28;20461;-49
2023/08/07 03:36:06;;;;;;;0.40;0.20;;;;;;;15.24;87.11;100013.66;5006407;28;20492;-48
2023/08/07 03:38:32;;;;;;;0.40;0.20;;;;;;;15.31;86.46;100009.69;4996922;28;20548;-48
2023/08/07 03:40:58;;;;;;;0.40;0.20;;;;;;;15.50;86.33;100023.00;5005630;28;20531;-49
2023/08/07 03:43:25;;;;;;;0.40;0.20;;;;;;;15.34;86.42;100010.41;5004882;28;20450;-49
2023/08/07 03:45:57;;;;;;;0.40;0.20;;;;;;;15.43;85.89;100014.41;5008082;28;20447;-49
2023/08/07 03:48:29;;;;;;;0.40;0.20;;;;;;;15.53;85.83;100021.03;5003332;28;20453;-49
2023/08/07 03:51:08;;;;;;;0.40;0.20;;;;;;;15.18;86.21;100022.00;5002274;28;20505;-49
2023/08/07 03:53:35;;;;;;;0.40;0.20;;;;;;;15.32;86.36;100019.47;5001243;28;20453;-49
2023/08/07 03:56:01;;;;;;;0.40;0.20;;;;;;;15.56;85.93;100012.81;5008834;28;20480;-50
2023/08/07 03:58:28;;;;;;;0.40;0.20;;;;;;;15.46;86.35;100008.88;5000770;28;20457;-48
2023/08/07 04:00:55;;;;;;;0.40;0.20;;;;;;;15.63;85.41;100016.09;5006122;28;20473;-49
2023/08/07 04:03:22;;;;;;;0.40;0.20;;;;;;;15.46;86.15;100016.06;5005386;28;20954;-49
2023/08/07 04:05:53;;;;;;;0.40;0.20;;;;;;;15.54;85.39;100024.56;4999305;28;20448;-49
2023/08/07 04:08:20;;;;;;;0.40;0.20;;;;;;;15.30;86.18;100018.69;4999387;28;20943;-50
2023/08/07 04:11:05;;;;;;;0.40;0.20;;;;;;;15.53;85.67;100021.03;5005800;28;20540;-49
2023/08/07 04:13:32;;;;;;;0.40;0.20;;;;;;;15.45;85.98;100019.69;5005698;28;20457;-49
2023/08/07 04:16:00;;;;;;;0.40;0.20;;;;;;;15.63;85.38;100021.44;4994000;28;20504;-50
2023/08/07 04:18:27;;;;;;;0.40;0.20;;;;;;;15.63;84.83;100027.66;5006083;28;20449;-50
2023/08/07 04:20:55;;;;;;;0.40;0.20;;;;;;;15.43;86.38;100024.25;4992124;28;20890;-49
2023/08/07 04:23:22;;;;;;;0.40;0.20;;;;;;;15.36;86.15;100029.97;5001858;28;20445;-50
2023/08/07 04:25:50;;;;;;;0.40;0.20;;;;;;;15.37;86.38;100029.00;5002225;28;20457;-48
2023/08/07 04:28:16;;;;;;;0.40;0.20;;;;;;;15.27;86.78;100025.06;4995664;28;20455;-49
2023/08/07 04:30:44;;;;;;;0.40;0.20;;;;;;;15.17;86.85;100023.81;5001060;28;20485;-49
2023/08/07 04:33:10;;;;;;;0.40;0.20;;;;;;;15.13;87.30;100022.25;4997352;28;20455;-48
2023/08/07 04:35:37;;;;;;;0.40;0.20;;;;;;;15.30;86.82;100027.56;5009423;28;20480;-49
2023/08/07 04:38:03;;;;;;;0.40;0.20;;;;;;;15.45;86.23;100020.53;4997208;28;20460;-49
2023/08/07 04:40:30;;;;;;;0.40;0.20;;;;;;;15.57;85.94;100019.03;5004059;28;20468;-50
2023/08/07 04:42:56;;;;;;;0.40;0.20;;;;;;;15.24;86.47;100025.25;4988684;28;20445;-49
2023/08/07 04:45:23;;;;;;;0.40;0.20;;;;;;;15.54;86.21;100033.47;5003327;28;20448;-49
2023/08/07 04:47:49;;;;;;;0.40;0.20;;;;;;;15.27;86.59;100025.06;5008080;28;20452;-49
2023/08/07 04:50:16;;;;;;;0.40;0.20;;;;;;;15.25;86.81;100018.94;5003839;28;20508;-49
2023/08/07 04:52:42;;;;;;;0.40;0.20;;;;;;;15.39;85.78;100016.41;4997566;28;20812;-49
2023/08/07 04:55:09;;;;;;;0.40;0.20;;;;;;;15.16;86.98;100021.22;5003665;28;20927;-48
2023/08/07 04:57:35;;;;;;;0.40;0.20;;;;;;;15.36;86.41;100021.91;5006125;28;20457;-49
2023/08/07 05:00:02;;;;;;;0.40;0.20;;;;;;;15.41;86.73;100027.03;4995459;28;20481;-49
2023/08/07 05:02:28;;;;;;;0.40;0.20;;;;;;;15.26;86.09;100030.50;5002619;28;20843;-48
2023/08/07 05:04:55;;;;;;;0.40;0.20;;;;;;;15.23;86.35;100033.34;5007345;28;20532;-50
2023/08/07 05:07:21;;;;;;;0.40;0.20;;;;;;;15.35;86.26;100030.00;4996692;28;20445;-49
2023/08/07 05:09:49;;;;;;;0.40;0.20;;;;;;;15.40;85.92;100038.69;4996929;28;20469;-50
2023/08/07 05:12:16;;;;;;;0.40;0.20;;;;;;;15.36;86.15;100039.81;5006274;28;20484;-49
2023/08/07 05:14:42;;;;;;;0.40;0.20;;;;;;;15.33;86.23;100038.13;5010761;28;20511;-49
2023/08/07 05:17:09;;;;;;;0.40;0.20;;;;;;;15.19;86.49;100032.63;4995162;28;20468;-50
2023/08/07 05:19:35;;;;;;;0.40;0.20;;;;;;;15.35;85.56;100028.22;5000510;28;20994;-49
2023/08/07 05:22:01;;;;;;;0.40;0.20;;;;;;;15.22;86.00;100040.53;5006414;28;20532;-50
2023/08/07 05:24:28;;;;;;;0.40;0.20;;;;;;;15.20;86.18;100038.84;4995016;28;20974;-49
2023/08/07 05:26:54;;;;;;;0.40;0.20;;;;;;;15.38;85.93;100045.94;4996066;28;20824;-49
2023/08/07 05:29:21;;;;;;;0.40;0.20;;;;;;;15.27;85.69;100049.16;4992355;28;20462;-49
2023/08/07 05:31:47;;;;;;;0.40;0.20;;;;;;;15.45;85.82;100052.69;4997872;28;20459;-49
2023/08/07 05:34:13;;;;;;;0.40;0.20;;;;;;;15.36;85.61;100056.75;5013043;28;20563;-50
2023/08/07 05:36:41;;;;;;;0.40;0.20;;;;;;;15.27;85.70;100067.91;5001922;28;20488;-49
2023/08/07 05:39:08;;;;;;;0.40;0.20;;;;;;;15.15;86.07;100060.50;5003222;28;20541;-49
2023/08/07 05:41:35;;;;;;;0.40;0.20;;;;;;;15.45;85.27;100058.06;5000932;28;20480;-49
2023/08/07 05:44:01;;;;;;;0.40;0.20;;;;;;;15.33;85.68;100059.56;4993772;28;20923;-49
2023/08/07 05:46:27;;;;;;;0.40;0.20;;;;;;;15.52;85.14;100058.63;4992405;28;20451;-49
2023/08/07 05:48:54;;;;;;;0.40;0.20;;;;;;;15.49;85.05;100054.28;5001703;28;20947;-49
2023/08/07 05:51:20;;;;;;;0.40;0.20;;;;;;;15.59;85.37;100049.28;4983137;28;20856;-49
2023/08/07 05:53:47;;;;;;;0.40;0.20;;;;;;;15.46;84.73;100062.47;4993850;28;20485;-49
2023/08/07 05:56:13;;;;;;;0.40;0.20;;;;;;;15.27;85.70;100065.25;4994064;28;21072;-49
2023/08/07 05:58:40;;;;;;;0.40;0.20;;;;;;;15.32;85.84;100070.34;4999053;28;20458;-49
2023/08/07 06:01:06;;;;;;;0.40;0.20;;;;;;;15.36;85.71;100080.84;4988720;28;20477;-49
2023/08/07 06:03:33;;;;;;;0.40;0.20;;;;;;;15.73;84.85;100080.75;5001845;28;20485;-49
2023/08/07 06:05:59;;;;;;;0.40;0.20;;;;;;;15.59;84.77;100079.66;5008100;28;20454;-55
2023/08/07 06:08:26;;;;;;;0.40;0.20;;;;;;;15.33;85.91;100083.66;5002210;28;20457;-49
2023/08/07 06:10:52;;;;;;;0.40;0.20;;;;;;;15.57;85.55;100092.25;5000371;28;20482;-50
2023/08/07 06:13:19;;;;;;;0.40;0.20;;;;;;;15.53;85.45;100093.34;4990527;28;20954;-49
2023/08/07 06:16:01;;;;;;;0.40;0.20;;;;;;;15.61;85.52;100088.47;5002946;28;20488;-49
2023/08/07 06:18:27;;;;;;;0.40;0.20;;;;;;;15.69;85.10;100093.44;5008152;28;20950;-49
2023/08/07 06:20:54;;;;;;;0.40;0.20;;;;;;;15.53;85.76;100097.84;5003367;28;20481;-49
2023/08/07 06:23:20;;;;;;;0.40;0.20;;;;;;;15.48;86.01;100098.06;5001263;28;20458;-49
2023/08/07 06:25:46;;;;;;;0.40;0.20;;;;;;;15.55;85.67;100104.84;5005432;28;20445;-50
2023/08/07 06:28:13;;;;;;;0.40;0.20;;;;;;;15.52;85.87;100098.81;5008103;28;20585;-49
2023/08/07 06:30:39;;;;;;;0.40;0.20;;;;;;;15.68;85.47;100105.13;5003709;28;20491;-49
2023/08/07 06:33:06;;;;;;;0.40;0.20;;;;;;;15.60;85.46;100107.31;4991354;28;21731;-50
2023/08/07 06:35:38;;;;;;;0.40;0.20;;;;;;;15.51;85.07;100105.97;5003165;28;20495;-50
2023/08/07 06:38:05;;;;;;;0.40;0.20;;;;;;;15.61;85.43;100106.38;5003357;28;20449;-49
2023/08/07 06:40:35;;;;;;;0.40;0.20;;;;;;;15.78;85.83;100108.19;5005101;28;20582;-49
2023/08/07 06:43:01;;;;;;;0.40;0.20;;;;;;;15.94;84.58;100126.06;5000686;28;20495;-49
2023/08/07 06:45:27;;;;;;;0.40;0.20;;;;;;;15.43;86.33;100118.00;5006150;28;21027;-50
2023/08/07 06:47:54;;;;;;;0.40;0.20;;;;;;;15.30;87.40;100120.44;5009486;28;20453;-49
2023/08/07 06:50:20;;;;;;;0.40;0.20;;;;;;;15.35;87.13;100126.44;5005901;28;20472;-50
2023/08/07 06:52:47;;;;;;;0.40;0.20;;;;;;;15.51;86.75;100126.53;4996133;28;20875;-49
2023/08/07 06:55:13;;;;;;;0.40;0.20;;;;;;;15.65;86.80;100132.94;5005898;28;20575;-49
2023/08/07 06:57:40;;;;;;;0.40;0.20;;;;;;;15.75;86.14;100133.31;5001206;28;20452;-49
2023/08/07 07:00:07;;;;;;;0.40;0.20;;;;;;;15.73;85.41;100120.94;5002206;28;20480;-49
2023/08/07 07:02:35;;;;;;;0.40;0.20;;;;;;;15.83;84.99;100122.19;5001244;28;20547;-49
2023/08/07 07:05:01;;;;;;;0.40;0.20;;;;;;;15.78;85.43;100133.19;4998053;28;20541;-49
2023/08/07 07:07:28;;;;;;;0.40;0.20;;;;;;;15.79;85.34;100126.88;5002033;28;20451;-49
2023/08/07 07:09:55;;;;;;;0.40;0.20;;;;;;;15.91;84.98;100133.41;5002353;28;20591;-49
2023/08/07 07:12:21;;;;;;;0.40;0.20;;;;;;;15.79;85.15;100123.31;5000556;28;20519;-49
2023/08/07 07:14:47;;;;;;;0.40;0.20;;;;;;;15.79;84.19;100142.09;5001464;28;20552;-49
2023/08/07 07:17:14;;;;;;;0.40;0.20;;;;;;;15.85;84.72;100133.72;5006862;28;20495;-51
2023/08/07 07:19:40;;;;;;;0.40;0.20;;;;;;;15.88;84.53;100134.41;4996371;28;20483;-50
2023/08/07 07:22:07;;;;;;;0.40;0.20;;;;;;;16.19;83.63;100136.34;4999921;28;20457;-49
2023/08/07 07:24:33;;;;;;;0.40;0.20;;;;;;;16.06;83.52;100129.91;5000991;28;20446;-49
2023/08/07 07:26:59;;;;;;;0.40;0.20;;;;;;;15.77;83.72;100128.75;5005438;28;20833;-49
2023/08/07 07:29:26;;;;;;;0.40;0.20;;;;;;;15.98;83.68;100135.66;5006346;28;20919;-49
2023/08/07 07:31:54;;;;;;;0.40;0.20;;;;;;;15.92;83.12;100143.16;5000141;28;20900;-51
2023/08/07 07:34:22;;;;;;;0.40;0.20;;;;;;;15.92;83.01;100140.50;5000017;28;20822;-51
2023/08/07 07:36:48;;;;;;;0.40;0.20;;;;;;;15.91;83.79;100149.47;4995839;28;20496;-51
2023/08/07 07:39:15;;;;;;;0.40;0.20;;;;;;;15.97;83.04;100154.50;4996705;28;20455;-50
2023/08/07 07:41:41;;;;;;;0.40;0.20;;;;;;;15.92;83.67;100160.13;5006194;28;20488;-51
2023/08/07 07:44:08;;;;;;;0.40;0.20;;;;;;;15.90;82.69;100155.78;4994705;28;20939;-51
2023/08/07 07:46:34;;;;;;;0.40;0.20;;;;;;;15.91;83.33;100162.88;5011789;28;20820;-50
2023/08/07 07:49:03;;;;;;;0.40;0.20;;;;;;;16.10;82.87;100165.44;5011133;28;20445;-51
2023/08/07 07:51:29;;;;;;;0.40;0.20;;;;;;;15.87;82.50;100178.25;5003461;28;20661;-51
2023/08/07 07:53:56;;;;;;;0.40;0.20;;;;;;;15.96;82.43;100184.94;5004239;28;20456;-51
2023/08/07 07:56:40;;;;;;;0.40;0.20;;;;;;;15.92;81.95;100186.06;5006715;28;20491;-51
2023/08/07 07:59:06;;;;;;;0.40;0.20;;;;;;;16.07;82.34;100187.94;5007218;28;20846;-51
2023/08/07 08:01:35;;;;;;;0.40;0.20;;;;;;;16.20;81.90;100197.06;5000275;28;20974;-51
2023/08/07 08:04:02;;;;;;;0.40;0.20;;;;;;;15.96;82.28;100191.19;5004037;28;20875;-51
2023/08/07 08:06:28;;;;;;;0.40;0.20;;;;;;;15.88;82.44;100198.75;4993795;28;20457;-51
2023/08/07 08:08:55;;;;;;;0.40;0.20;;;;;;;15.98;83.19;100197.31;5005948;28;20544;-51
2023/08/07 08:11:21;;;;;;;0.40;0.20;;;;;;;15.95;82.63;100201.97;5001516;28;20557;-51
2023/08/07 08:13:48;;;;;;;0.40;0.20;;;;;;;16.00;82.01;100208.81;4994296;28;20977;-51
2023/08/07 08:16:15;;;;;;;0.40;0.20;;;;;;;15.84;82.06;100207.91;5004665;28;20480;-51
2023/08/07 08:18:42;;;;;;;0.40;0.20;;;;;;;15.98;82.32;100204.50;5001082;28;20457;-51
2023/08/07 08:21:08;;;;;;;0.40;0.20;;;;;;;16.01;81.85;100212.38;5004540;28;20499;-51
2023/08/07 08:23:35;;;;;;;0.40;0.20;;;;;;;16.22;81.70;100200.53;5009183;28;21145;-51
2023/08/07 08:26:01;;;;;;;0.40;0.20;;;;;;;16.27;81.71;100205.63;5012708;28;20451;-51
2023/08/07 08:28:28;;;;;;;0.40;0.20;;;;;;;16.24;81.48;100213.84;5007457;28;20468;-51
2023/08/07 08:30:54;;;;;;;0.40;0.20;;;;;;;16.29;81.33;100209.09;5009755;28;20552;-51
2023/08/07 08:33:21;;;;;;;0.40;0.20;;;;;;;16.36;80.79;100217.69;5011129;28;20926;-51
2023/08/07 08:35:47;;;;;;;0.40;0.20;;;;;;;16.35;80.78;100224.88;5000872;28;20576;-51
2023/08/07 08:38:14;;;;;;;0.40;0.20;;;;;;;16.32;80.64;100219.69;5002561;28;20457;-51
2023/08/07 08:40:40;;;;;;;0.40;0.20;;;;;;;16.25;81.14;100223.63;5000800;28;20524;-51
2023/08/07 08:43:10;;;;;;;0.40;0.20;;;;;;;16.41;81.10;100224.53;5002098;28;20427;-51
2023/08/07 08:45:37;;;;;;;0.40;0.20;;;;;;;16.49;80.99;100226.84;5005518;28;20452;-51
2023/08/07 08:48:07;;;;;;;0.40;0.20;;;;;;;16.49;81.39;100222.31;5003160;28;20456;-51
2023/08/07 08:50:35;;;;;;;0.40;0.20;;;;;;;16.49;80.55;100222.31;4995042;28;21010;-50
2023/08/07 08:53:02;;;;;;;0.40;0.20;;;;;;;16.52;80.03;100229.34;5000519;28;20982;-51
2023/08/07 08:55:30;;;;;;;0.40;0.20;;;;;;;16.54;80.09;100240.84;4997024;28;20493;-50
2023/08/07 08:58:00;;;;;;;0.40;0.20;;;;;;;16.40;80.81;100228.19;4992578;28;20453;-51
2023/08/07 09:00:29;;;;;;;0.40;0.20;;;;;;;16.37;80.31;100240.91;5000212;28;20513;-51
2023/08/07 09:02:56;;;;;;;0.40;0.20;;;;;;;16.63;79.73;100232.31;5003068;28;20545;-51
2023/08/07 09:05:22;;;;;;;0.40;0.20;;;;;;;16.49;80.76;100234.88;4995092;28;20556;-51
2023/08/07 09:07:50;;;;;;;0.40;0.20;;;;;;;16.54;80.96;100236.34;5004243;28;20946;-50
2023/08/07 09:10:16;;;;;;;0.40;0.20;;;;;;;16.41;80.83;100237.09;5009469;28;20473;-49
2023/08/07 09:12:54;;;;;;;0.40;0.20;;;;;;;16.40;80.82;100243.41;5005952;28;20448;-50
2023/08/07 09:15:23;;;;;;;0.40;0.20;;;;;;;16.46;81.85;100246.66;5002330;28;20550;-50
2023/08/07 09:17:54;;;;;;;0.40;0.20;;;;;;;16.51;81.57;100246.38;5006546;28;20464;-50
2023/08/07 09:20:22;;;;;;;0.40;0.20;;;;;;;16.46;82.43;100245.78;5008744;28;20469;-50
2023/08/07 09:22:49;;;;;;;0.40;0.20;;;;;;;16.41;82.67;100255.88;5008880;28;20859;-50
2023/08/07 09:25:27;;;;;;;0.40;0.20;;;;;;;16.25;85.43;100254.00;5002433;28;20444;-49
2023/08/07 09:27:55;;;;;;;0.40;0.20;;;;;;;16.23;88.95;100255.03;4998084;28;20797;-49
2023/08/07 09:30:26;;;;;;;0.40;0.20;;;;;;;16.12;89.71;100265.44;5005085;28;20805;-51
2023/08/07 09:32:53;;;;;;;0.40;0.20;;;;;;;15.96;90.27;100250.16;5001932;28;20455;-51
2023/08/07 09:35:22;;;;;;;0.40;0.20;;;;;;;15.76;90.73;100255.69;5001037;28;20460;-51
2023/08/07 09:37:50;;;;;;;0.40;0.20;;;;;;;15.63;91.04;100257.25;5000147;28;20993;-49
2023/08/07 09:40:17;;;;;;;0.40;0.20;;;;;;;15.66;90.97;100263.31;5005766;28;20990;-49
2023/08/07 09:42:44;;;;;;;0.40;0.20;;;;;;;15.83;92.17;100265.13;5001568;28;20467;-51
2023/08/07 09:45:24;;;;;;;0.40;0.20;;;;;;;15.83;93.35;100265.13;5007058;28;20475;-51
2023/08/07 09:48:01;;;;;;;0.40;0.20;;;;;;;15.89;92.13;100274.66;5001618;28;20551;-51
2023/08/07 09:50:28;;;;;;;0.40;0.20;;;;;;;16.00;92.35;100275.84;5009550;28;20590;-51
2023/08/07 09:52:56;;;;;;;0.40;0.20;;;;;;;16.03;92.33;100271.28;5004142;28;20504;-49
2023/08/07 09:55:22;;;;;;;0.40;0.20;;;;;;;16.18;92.68;100275.88;5003673;28;20531;-49
2023/08/07 09:57:49;;;;;;;0.40;0.20;;;;;;;16.14;92.38;100283.19;5007016;28;20517;-50
2023/08/07 10:00:19;;;;;;;0.40;0.20;;;;;;;16.19;92.29;100281.16;5009851;28;20510;-51
2023/08/07 10:02:47;;;;;;;0.40;0.20;;;;;;;16.18;92.26;100287.47;4996725;28;20839;-52
2023/08/07 10:05:15;;;;;;;0.40;0.20;;;;;;;16.28;91.93;100286.03;5001187;28;20457;-52
2023/08/07 10:07:41;;;;;;;0.40;0.20;;;;;;;16.35;92.41;100283.91;5010261;28;20551;-52
2023/08/07 10:10:09;;;;;;;0.40;0.20;;;;;;;16.48;91.13;100289.50;5010172;28;21000;-51
2023/08/07 10:12:39;;;;;;;0.40;0.20;;;;;;;16.70;91.31;100290.09;4997328;28;20482;-51
2023/08/07 10:15:07;;;;;;;0.40;0.20;;;;;;;16.76;90.88;100291.59;5007701;28;20467;-51
2023/08/07 10:17:33;;;;;;;0.40;0.20;;;;;;;16.96;90.00;100286.00;4995278;28;20485;-51
2023/08/07 10:20:00;;;;;;;0.40;0.20;;;;;;;17.15;90.38;100285.88;5005119;28;20558;-51
2023/08/07 10:22:30;;;;;;;0.40;0.20;;;;;;;17.25;88.93;100284.38;5013559;28;20554;-51
2023/08/07 10:25:00;;;;;;;0.40;0.20;;;;;;;17.44;87.29;100290.47;5001218;28;20468;-51
2023/08/07 10:27:30;;;;;;;0.40;0.20;;;;;;;17.59;86.47;100291.41;5003038;28;20453;-51
2023/08/07 10:29:58;;;;;;;0.40;0.20;;;;;;;17.62;84.56;100288.53;5003701;28;20495;-51
2023/08/07 10:32:27;;;;;;;0.40;0.20;;;;;;;17.78;83.05;100296.59;5003024;28;20507;-51
2023/08/07 10:34:54;;;;;;;0.40;0.20;;;;;;;18.05;81.15;100297.69;5007903;28;20453;-51
2023/08/07 10:37:42;;;;;;;0.40;0.20;;;;;;;18.18;79.69;100295.13;5006129;28;20478;-51
2023/08/07 10:40:11;;;;;;;0.40;0.20;;;;;;;18.54;79.12;100291.16;5004707;28;20498;-51
2023/08/07 10:42:55;;;;;;;0.40;0.20;;;;;;;18.57;77.61;100293.66;5000691;28;20519;-51
2023/08/07 10:45:23;;;;;;;0.40;0.20;;;;;;;18.49;76.03;100290.56;5006496;28;20434;-51
2023/08/07 10:48:13;;;;;;;0.40;0.20;;;;;;;18.62;75.01;100299.63;5009417;28;20532;-51
2023/08/07 10:50:56;;;;;;;0.40;0.20;;;;;;;18.79;74.08;100294.13;5007159;28;20966;-52
2023/08/07 10:53:31;;;;;;;0.40;0.20;;;;;;;18.44;72.87;100303.44;5003025;28;20501;-51
2023/08/07 10:56:01;;;;;;;0.40;0.20;;;;;;;18.73;73.94;100299.88;5000847;28;20430;-51
2023/08/07 10:58:41;;;;;;;0.40;0.20;;;;;;;18.43;72.42;100301.72;4995141;28;20937;-51
2023/08/07 11:01:19;;;;;;;0.40;0.20;;;;;;;18.34;72.59;100298.63;4989491;28;20464;-51
2023/08/07 11:04:05;;;;;;;0.40;0.20;;;;;;;18.23;72.14;100301.13;4999850;28;20457;-51
2023/08/07 11:06:36;;;;;;;0.40;0.20;;;;;;;18.13;71.26;100304.44;4995392;28;20915;-51
2023/08/07 11:09:05;;;;;;;0.40;0.20;;;;;;;18.22;71.77;100298.50;5004605;28;20541;-51
2023/08/07 11:11:41;;;;;;;0.40;0.20;;;;;;;18.25;72.44;100299.19;5000849;28;20484;-51
2023/08/07 11:14:13;;;;;;;0.40;0.20;;;;;;;18.18;71.28;100297.81;4988537;28;20511;-51
2023/08/07 11:16:40;;;;;;;0.40;0.20;;;;;;;18.10;70.36;100299.25;5001491;28;20464;-52
2023/08/07 11:19:08;;;;;;;0.40;0.20;;;;;;;18.16;71.15;100298.88;5012857;28;20445;-51
2023/08/07 11:21:35;;;;;;;0.40;0.20;;;;;;;18.28;71.89;100303.53;5000879;28;20900;-51
2023/08/07 11:24:02;;;;;;;0.40;0.20;;;;;;;18.34;71.60;100305.81;5004804;28;20449;-52
2023/08/07 11:26:29;;;;;;;0.40;0.20;;;;;;;18.34;70.18;100309.38;5008144;28;20459;-51
2023/08/07 11:28:56;;;;;;;0.40;0.20;;;;;;;18.33;70.82;100306.78;5004285;28;20833;-52
2023/08/07 11:31:24;;;;;;;0.40;0.20;;;;;;;18.47;70.41;100311.34;5006222;28;21106;-51